Terminal Aerodrome Forecast
Issued by NWS

Current Version | Previous Version | Graphics & Text | Print | Product List | Glossary On
Versions: 1 2 3 4 5 6 7 8 9 10 11 12 13 14 15 16
000
FTUS41 KRNK 062320
TAFLWB
TAF
KLWB 062320Z 0700/0724 02007KT 4SM -DZ BR BKN003 OVC010
     FM070600 29004KT 5SM BR OVC015
     FM071000 30006KT P6SM OVC018
     FM071400 29007KT P6SM BKN025
     FM071900 28004KT P6SM SCT040=

USA.gov is the U.S. government's official web portal to all federal, state and local government web resources and services.